createdAt,value
2022-09-22T00:01:31.334Z,100838.75
2022-09-22T00:04:01.538Z,100849.97
2022-09-22T00:06:34.265Z,100842.56
2022-09-22T00:09:03.060Z,100844.69
2022-09-22T00:11:34.308Z,100846.00
2022-09-22T00:14:05.485Z,100837.50
2022-09-22T00:16:39.304Z,100832.38
2022-09-22T00:19:07.822Z,100849.69
2022-09-22T00:21:37.620Z,100853.88
2022-09-22T00:24:07.998Z,100856.78
2022-09-22T00:26:37.383Z,100852.75
2022-09-22T00:29:08.114Z,100845.75
2022-09-22T00:31:37.007Z,100865.38
2022-09-22T00:34:05.620Z,100853.94
2022-09-22T00:36:33.892Z,100863.75
2022-09-22T00:39:03.519Z,100859.56
2022-09-22T00:41:34.119Z,100861.94
2022-09-22T00:44:31.123Z,100860.22
2022-09-22T00:47:02.473Z,100869.91
2022-09-22T00:49:42.978Z,100867.78
2022-09-22T00:52:12.398Z,100864.22
2022-09-22T00:54:41.712Z,100870.69
2022-09-22T00:57:12.243Z,100876.81
2022-09-22T00:59:41.763Z,100878.66
2022-09-22T01:02:09.581Z,100872.66
2022-09-22T01:04:37.368Z,100868.03
2022-09-22T01:07:06.770Z,100871.38
2022-09-22T01:09:34.822Z,100881.66
2022-09-22T01:12:05.477Z,100880.06
2022-09-22T01:14:46.493Z,100873.53
2022-09-22T01:17:23.581Z,100877.41
2022-09-22T01:20:37.092Z,100879.44
2022-09-22T01:23:28.715Z,100874.41
2022-09-22T01:26:20.121Z,100882.00
2022-09-22T01:29:11.498Z,100882.03
2022-09-22T01:31:46.017Z,100883.13
2022-09-22T01:34:21.055Z,100889.56
2022-09-22T01:37:04.262Z,100893.44
2022-09-22T01:39:38.632Z,100889.47
2022-09-22T01:42:10.844Z,100896.53
2022-09-22T01:44:46.449Z,100886.75
2022-09-22T01:47:22.110Z,100896.03
2022-09-22T01:49:53.580Z,100903.13
2022-09-22T01:52:24.952Z,100897.41
2022-09-22T01:54:56.932Z,100905.91
2022-09-22T01:57:29.492Z,100900.06
2022-09-22T02:00:03.192Z,100897.88
2022-09-22T02:02:37.856Z,100906.88
2022-09-22T02:05:09.527Z,100911.06
2022-09-22T02:07:41.700Z,100916.81
2022-09-22T02:10:13.257Z,100923.53
2022-09-22T02:12:41.323Z,100926.53
2022-09-22T02:15:31.032Z,100926.41
2022-09-22T02:18:04.691Z,100933.81
2022-09-22T02:20:34.164Z,100928.97
2022-09-22T02:23:01.945Z,100927.53
2022-09-22T02:25:30.262Z,100917.25
2022-09-22T02:27:59.086Z,100917.88
2022-09-22T02:30:28.041Z,100921.28
2022-09-22T02:32:58.343Z,100926.03
2022-09-22T02:35:31.263Z,100920.59
2022-09-22T02:38:05.162Z,100929.75
2022-09-22T02:40:42.791Z,100926.84
2022-09-22T02:43:17.563Z,100930.72
2022-09-22T02:45:52.108Z,100933.69
2022-09-22T02:48:22.818Z,100934.38
2022-09-22T02:50:52.895Z,100947.06
2022-09-22T02:53:20.626Z,100936.59
2022-09-22T02:55:49.118Z,100941.91
2022-09-22T02:58:18.173Z,100948.03
2022-09-22T03:00:46.307Z,100943.28
2022-09-22T03:03:14.438Z,100950.41
2022-09-22T03:05:42.156Z,100947.59
2022-09-22T03:08:11.252Z,100953.03
2022-09-22T03:10:38.956Z,100954.44
2022-09-22T03:13:16.309Z,100968.78
2022-09-22T03:15:45.271Z,100966.38
2022-09-22T03:18:13.055Z,100969.84
2022-09-22T03:20:40.960Z,100977.34
2022-09-22T03:23:08.779Z,100990.38
2022-09-22T03:25:37.882Z,101000.22
2022-09-22T03:28:05.874Z,101018.47
2022-09-22T03:30:33.769Z,101024.75
2022-09-22T03:33:01.517Z,101041.00
2022-09-22T03:35:29.245Z,101063.53
2022-09-22T03:37:56.941Z,101068.47
2022-09-22T03:40:24.839Z,101063.59
2022-09-22T03:42:53.930Z,101057.34
2022-09-22T03:45:21.649Z,101054.53
2022-09-22T03:47:49.436Z,101040.28
2022-09-22T03:50:17.324Z,101036.84
2022-09-22T03:52:45.015Z,101013.81
2022-09-22T03:55:13.191Z,101028.72
2022-09-22T03:57:43.377Z,101038.81
2022-09-22T04:00:15.065Z,101040.84
2022-09-22T04:02:42.805Z,101046.28
2022-09-22T04:05:11.663Z,101050.50
2022-09-22T04:07:39.524Z,101040.34
2022-09-22T04:10:07.769Z,101012.63
2022-09-22T04:12:37.190Z,101022.31
2022-09-22T04:15:05.549Z,101029.66
2022-09-22T04:17:36.081Z,101039.09
2022-09-22T04:20:04.557Z,101040.75
2022-09-22T04:22:32.271Z,101032.03
2022-09-22T04:25:00.416Z,101020.38
2022-09-22T04:27:28.096Z,101023.97
2022-09-22T04:29:55.965Z,101031.31
2022-09-22T04:32:23.727Z,101031.03
2022-09-22T04:34:52.954Z,101030.41
2022-09-22T04:37:20.651Z,101038.53
2022-09-22T04:39:48.336Z,101023.19
2022-09-22T04:42:16.106Z,101039.94
2022-09-22T04:44:43.789Z,101043.97
2022-09-22T04:47:11.477Z,101061.44
2022-09-22T04:49:39.194Z,101067.63
2022-09-22T04:52:08.291Z,101066.94
2022-09-22T04:54:35.960Z,101076.84
2022-09-22T04:57:06.634Z,101097.28
2022-09-22T04:59:35.347Z,101107.44
2022-09-22T05:02:03.187Z,101118.84
2022-09-22T05:04:30.893Z,101153.72
2022-09-22T05:06:58.575Z,101203.97
2022-09-22T05:09:28.162Z,101226.06
2022-09-22T05:12:01.283Z,101247.22
2022-09-22T05:14:30.325Z,101269.19
2022-09-22T05:16:58.117Z,101279.97
2022-09-22T05:19:25.871Z,101307.97
2022-09-22T05:21:54.340Z,101301.84
2022-09-22T05:24:27.186Z,101297.06
2022-09-22T05:26:55.167Z,101282.75
2022-09-22T05:29:27.193Z,101274.09
2022-09-22T05:31:55.752Z,101266.63
2022-09-22T05:34:23.502Z,101256.47
2022-09-22T05:36:51.200Z,101254.94
2022-09-22T05:39:19.022Z,101258.44
2022-09-22T05:41:49.827Z,101251.34
2022-09-22T05:44:17.723Z,101250.75
2022-09-22T05:46:46.769Z,101223.97
2022-09-22T05:49:14.533Z,101204.09
2022-09-22T05:51:42.732Z,101195.13
2022-09-22T05:54:10.923Z,101179.34
2022-09-22T05:56:38.598Z,101169.81
2022-09-22T05:59:07.627Z,101167.41
2022-09-22T06:01:35.333Z,101164.44
2022-09-22T06:04:03.303Z,101152.06
2022-09-22T06:06:31.248Z,101164.38
2022-09-22T06:08:59.161Z,101162.19
2022-09-22T06:11:26.912Z,101172.78
2022-09-22T06:13:54.730Z,101175.16
2022-09-22T06:16:23.902Z,101177.19
2022-09-22T06:18:51.635Z,101182.22
2022-09-22T06:21:19.355Z,101175.34
2022-09-22T06:23:47.052Z,101182.13
2022-09-22T06:26:14.817Z,101174.34
2022-09-22T06:28:42.532Z,101167.66
2022-09-22T06:31:10.281Z,101154.78
2022-09-22T06:33:39.359Z,101140.84
2022-09-22T06:36:07.998Z,101118.22
2022-09-22T06:38:35.747Z,101099.09
2022-09-22T06:41:06.829Z,101102.19
2022-09-22T06:43:35.480Z,101111.69
2022-09-22T06:46:03.762Z,101138.63
2022-09-22T06:48:32.056Z,101154.72
2022-09-22T06:51:01.146Z,101162.44
2022-09-22T06:53:30.828Z,101159.00
2022-09-22T06:56:00.338Z,101169.09
2022-09-22T06:58:29.016Z,101178.53
2022-09-22T07:01:07.616Z,101200.81
2022-09-22T07:03:43.122Z,101256.78
2022-09-22T07:06:20.237Z,101315.75
2022-09-22T07:08:49.469Z,101385.94
2022-09-22T07:11:23.481Z,101465.13
2022-09-22T07:13:56.268Z,101529.63
2022-09-22T07:16:25.474Z,101595.34
2022-09-22T07:18:55.525Z,101627.38
2022-09-22T07:21:26.386Z,101600.09
2022-09-22T07:23:56.410Z,101594.75
2022-09-22T07:26:26.556Z,101583.31
2022-09-22T07:28:54.967Z,101626.06
2022-09-22T07:31:28.391Z,101683.75
2022-09-22T07:34:00.191Z,101617.44
2022-09-22T07:36:31.130Z,101649.31
2022-09-22T07:39:03.253Z,101670.66
2022-09-22T07:41:34.100Z,101734.72
2022-09-22T07:44:22.704Z,101831.69
2022-09-22T07:46:50.644Z,101828.81
2022-09-22T07:49:19.642Z,101854.06
2022-09-22T07:51:49.535Z,101866.69
2022-09-22T07:54:17.378Z,101877.88
2022-09-22T07:56:46.333Z,101843.34
2022-09-22T07:59:16.689Z,101915.84
2022-09-22T08:01:47.512Z,101892.72
2022-09-22T08:04:18.865Z,101903.63
2022-09-22T08:06:50.193Z,101909.31
2022-09-22T08:09:18.363Z,101931.97
2022-09-22T08:11:48.730Z,101971.97
2022-09-22T08:14:18.696Z,101935.91
2022-09-22T08:16:46.957Z,101971.09
2022-09-22T08:19:15.679Z,101979.94
2022-09-22T08:21:48.998Z,101960.88
2022-09-22T08:24:22.340Z,101993.81
2022-09-22T08:26:52.470Z,101943.31
2022-09-22T08:29:20.776Z,101969.19
2022-09-22T08:31:51.156Z,102012.88
2022-09-22T08:34:19.060Z,102041.06
2022-09-22T08:36:49.055Z,102051.81
2022-09-22T08:39:20.637Z,102079.63
2022-09-22T08:42:01.232Z,102112.34
2022-09-22T08:44:39.229Z,102143.41
2022-09-22T08:47:16.602Z,102170.72
2022-09-22T08:50:08.603Z,102190.13
2022-09-22T08:52:40.478Z,102240.75
2022-09-22T08:55:23.047Z,102301.44
2022-09-22T08:58:01.889Z,102333.03
2022-09-22T09:00:37.107Z,102359.22
2022-09-22T09:03:27.443Z,102366.72
2022-09-22T09:06:04.543Z,102355.63
2022-09-22T09:09:17.039Z,102344.78
2022-09-22T09:11:58.943Z,102380.91
2022-09-22T09:14:56.823Z,102387.91
2022-09-22T09:17:28.838Z,102404.22
2022-09-22T09:20:02.671Z,102409.28
2022-09-22T09:22:34.702Z,102395.06
2022-09-22T09:27:59.046Z,102409.44
2022-09-22T09:30:26.982Z,102384.28
2022-09-22T09:32:57.647Z,102423.69
2022-09-22T09:35:39.734Z,102427.28
2022-09-22T09:38:14.578Z,102427.31
2022-09-22T09:40:42.651Z,102423.88
2022-09-22T09:43:12.077Z,102436.56
2022-09-22T09:45:51.809Z,102430.75
2022-09-22T09:48:27.066Z,102429.00
2022-09-22T09:50:54.818Z,102427.53
2022-09-22T09:53:32.218Z,102437.44
2022-09-22T09:55:59.987Z,102433.25
2022-09-22T09:58:46.652Z,102427.03
2022-09-22T10:01:15.810Z,102431.63
2022-09-22T10:03:47.012Z,102425.34
2022-09-22T10:06:24.106Z,102417.97
2022-09-22T10:08:53.088Z,102407.38
2022-09-22T10:11:31.045Z,102417.34
2022-09-22T10:14:00.288Z,102418.31
2022-09-22T10:16:28.848Z,102411.34
2022-09-22T10:19:21.712Z,102406.53
2022-09-22T10:21:50.009Z,102409.28
2022-09-22T10:24:33.340Z,102403.69
2022-09-22T10:27:03.801Z,102407.00
2022-09-22T10:29:42.222Z,102406.81
2022-09-22T10:32:16.791Z,102408.94
2022-09-22T10:37:24.419Z,102401.84
2022-09-22T10:39:53.849Z,102405.94
2022-09-22T10:42:34.234Z,102400.59
2022-09-22T10:45:06.978Z,102397.41
2022-09-22T10:47:45.535Z,102401.81
2022-09-22T10:50:41.160Z,102397.59
2022-09-22T10:53:28.398Z,102391.19
2022-09-22T10:56:05.502Z,102387.94
2022-09-22T10:58:51.107Z,102387.13
2022-09-22T11:01:37.538Z,102378.00
2022-09-22T11:04:21.067Z,102385.94
2022-09-22T11:07:20.201Z,102379.81
2022-09-22T11:10:12.105Z,102380.19
2022-09-22T11:12:52.582Z,102373.69
2022-09-22T11:15:38.058Z,102376.53
2022-09-22T11:18:26.609Z,102373.75
2022-09-22T11:21:02.029Z,102369.25
2022-09-22T11:24:05.965Z,102362.56
2022-09-22T11:26:47.040Z,102357.03
2022-09-22T11:29:47.330Z,102366.81
2022-09-22T11:32:29.742Z,102360.50
2022-09-22T11:35:23.869Z,102361.53
2022-09-22T11:38:09.442Z,102351.47
2022-09-22T11:40:52.970Z,102355.75
2022-09-22T11:43:36.970Z,102354.81
2022-09-22T11:46:11.900Z,102352.03
2022-09-22T11:48:51.900Z,102346.16
2022-09-22T11:51:34.449Z,102338.47
2022-09-22T11:54:18.296Z,102335.34
2022-09-22T11:56:50.298Z,102337.69
2022-09-22T11:59:33.929Z,102337.63
2022-09-22T12:02:06.161Z,102340.16
2022-09-22T12:04:40.261Z,102331.44
2022-09-22T12:07:18.984Z,102339.09
2022-09-22T12:09:52.531Z,102319.97
2022-09-22T12:12:24.366Z,102323.13
2022-09-22T12:14:59.129Z,102315.53
2022-09-22T12:17:35.348Z,102323.72
2022-09-22T12:20:13.782Z,102314.94
2022-09-22T12:23:04.610Z,102300.66
2022-09-22T12:25:49.692Z,102310.34
2022-09-22T12:28:20.024Z,102310.84
2022-09-22T12:31:02.336Z,102299.34
2022-09-22T12:33:30.804Z,102295.78
2022-09-22T12:35:59.691Z,102297.25
2022-09-22T12:38:30.542Z,102293.50
2022-09-22T12:41:02.468Z,102310.03
2022-09-22T12:43:32.427Z,102302.94
2022-09-22T12:46:03.602Z,102310.56
2022-09-22T12:48:34.228Z,102306.22
2022-09-22T12:51:18.384Z,102307.38
2022-09-22T12:56:46.538Z,102296.53
2022-09-22T12:59:47.389Z,102286.75
2022-09-22T13:02:19.240Z,102289.53
2022-09-22T13:05:25.515Z,102302.28
2022-09-22T13:07:54.148Z,102305.84
2022-09-22T13:10:52.770Z,102300.47
2022-09-22T13:13:33.371Z,102291.91
2022-09-22T13:16:02.861Z,102287.47
2022-09-22T13:18:33.953Z,102282.44
2022-09-22T13:21:03.347Z,102279.88
2022-09-22T13:23:31.453Z,102289.72
2022-09-22T13:26:15.331Z,102279.84
2022-09-22T13:28:43.753Z,102280.09
2022-09-22T13:31:14.454Z,102284.19
2022-09-22T13:33:42.883Z,102286.47
2022-09-22T13:36:14.798Z,102288.44
2022-09-22T13:38:45.814Z,102281.56
2022-09-22T13:41:19.451Z,102283.47
2022-09-22T13:43:51.532Z,102278.47
2022-09-22T13:46:23.159Z,102285.50
2022-09-22T13:48:53.702Z,102278.13
2022-09-22T13:51:22.175Z,102265.59
2022-09-22T13:53:52.501Z,102272.25
2022-09-22T13:56:30.003Z,102274.16
2022-09-22T13:59:01.795Z,102273.09
2022-09-22T14:01:31.616Z,102273.53
2022-09-22T14:03:59.630Z,102267.25
2022-09-22T14:06:31.854Z,102262.47
2022-09-22T14:09:00.421Z,102263.91
2022-09-22T14:11:32.061Z,102263.06
2022-09-22T14:14:01.720Z,102264.19
2022-09-22T14:16:33.618Z,102257.78
2022-09-22T14:19:06.306Z,102263.06
2022-09-22T14:21:41.816Z,102252.66
2022-09-22T14:24:15.210Z,102251.47
2022-09-22T14:26:48.958Z,102249.28
2022-09-22T14:29:20.692Z,102245.63
2022-09-22T14:31:53.640Z,102249.56
2022-09-22T14:34:26.607Z,102243.84
2022-09-22T14:36:56.231Z,102243.00
2022-09-22T14:39:31.802Z,102246.31
2022-09-22T14:42:08.928Z,102241.41
2022-09-22T14:44:44.491Z,102247.84
2022-09-22T14:47:27.383Z,102236.59
2022-09-22T14:50:11.158Z,102246.19
2022-09-22T14:52:41.505Z,102233.94
2022-09-22T14:55:15.700Z,102236.28
2022-09-22T14:57:48.700Z,102225.66
2022-09-22T15:00:34.928Z,102217.09
2022-09-22T15:03:06.887Z,102219.41
2022-09-22T15:05:34.923Z,102202.41
2022-09-22T15:08:03.331Z,102205.72
2022-09-22T15:10:34.101Z,102195.97
2022-09-22T15:13:28.081Z,102176.19
2022-09-22T15:15:55.810Z,102192.28
2022-09-22T15:18:27.226Z,102194.28
2022-09-22T15:20:59.808Z,102193.59
2022-09-22T15:23:31.722Z,102199.50
2022-09-22T15:26:09.448Z,102185.91
2022-09-22T15:28:39.112Z,102200.69
2022-09-22T15:31:07.645Z,102198.09
2022-09-22T15:33:35.349Z,102195.56
2022-09-22T15:36:12.798Z,102196.91
2022-09-22T15:38:41.286Z,102202.38
2022-09-22T15:41:16.914Z,102201.34
2022-09-22T15:43:49.110Z,102191.72
2022-09-22T15:46:33.624Z,102193.78
2022-09-22T15:49:10.915Z,102192.53
2022-09-22T15:51:38.821Z,102180.31
2022-09-22T15:54:14.060Z,102175.88
2022-09-22T15:56:44.273Z,102179.28
2022-09-22T15:59:18.315Z,102179.19
2022-09-22T16:01:46.276Z,102171.69
2022-09-22T16:04:14.053Z,102170.41
2022-09-22T16:06:44.765Z,102175.00
2022-09-22T16:09:19.247Z,102175.84
2022-09-22T16:11:48.210Z,102179.34
2022-09-22T16:14:18.365Z,102177.00
2022-09-22T16:16:46.028Z,102174.63
2022-09-22T16:19:14.965Z,102177.09
2022-09-22T16:21:53.189Z,102175.88
2022-09-22T16:24:22.633Z,102180.09
2022-09-22T16:26:51.305Z,102165.72
2022-09-22T16:29:20.457Z,102178.66
2022-09-22T16:31:49.927Z,102177.25
2022-09-22T16:34:19.256Z,102171.03
2022-09-22T16:36:46.964Z,102180.50
2022-09-22T16:39:14.673Z,102171.53
2022-09-22T16:41:46.341Z,102167.50
2022-09-22T16:44:14.241Z,102170.47
2022-09-22T16:46:43.323Z,102168.22
2022-09-22T16:49:12.906Z,102156.75
2022-09-22T16:51:42.284Z,102154.91
2022-09-22T16:54:12.286Z,102155.06
2022-09-22T16:56:41.173Z,102162.75
2022-09-22T16:59:09.039Z,102154.69
2022-09-22T17:01:38.546Z,102154.97
2022-09-22T17:04:08.768Z,102161.44
2022-09-22T17:06:38.489Z,102146.69
2022-09-22T17:09:07.633Z,102151.19
2022-09-22T17:11:39.164Z,102140.94
2022-09-22T17:14:12.191Z,102136.38
2022-09-22T17:16:42.384Z,102128.75
2022-09-22T17:19:16.070Z,102111.00
2022-09-22T17:21:45.755Z,102107.75
2022-09-22T17:24:14.872Z,102109.56
2022-09-22T17:26:46.842Z,102104.09
2022-09-22T17:29:16.504Z,102093.69
2022-09-22T17:31:47.276Z,102099.91
2022-09-22T17:34:17.147Z,102088.47
2022-09-22T17:36:45.550Z,102089.72
2022-09-22T17:39:13.473Z,102096.25
2022-09-22T17:41:45.647Z,102088.94
2022-09-22T17:44:14.752Z,102080.50
2022-09-22T17:47:02.667Z,102072.81
2022-09-22T17:49:48.978Z,102072.66
2022-09-22T17:52:34.883Z,102062.00
2022-09-22T17:55:11.716Z,102067.81
2022-09-22T17:57:40.985Z,102055.25
2022-09-22T18:00:11.226Z,102040.38
2022-09-22T18:02:39.153Z,102054.56
2022-09-22T18:05:11.140Z,102052.84
2022-09-22T18:07:40.162Z,102051.59
2022-09-22T18:10:09.360Z,102059.66
2022-09-22T18:12:37.609Z,102047.09
2022-09-22T18:15:06.437Z,102042.53
2022-09-22T18:17:41.557Z,102038.28
2022-09-22T18:20:12.977Z,102041.28
2022-09-22T18:22:41.351Z,102032.94
2022-09-22T18:25:10.836Z,102029.88
2022-09-22T18:27:39.983Z,102041.22
2022-09-22T18:30:08.713Z,102035.19
2022-09-22T18:32:36.399Z,102025.56
2022-09-22T18:35:05.777Z,102015.88
2022-09-22T18:37:34.808Z,102005.63
2022-09-22T18:40:03.481Z,102012.50
2022-09-22T18:42:31.206Z,102010.69
2022-09-22T18:44:58.996Z,102003.75
2022-09-22T18:47:26.691Z,101995.63
2022-09-22T18:49:54.736Z,101993.66
2022-09-22T18:52:23.837Z,101993.47
2022-09-22T18:54:56.420Z,101979.81
2022-09-22T18:57:25.597Z,101978.19
2022-09-22T18:59:57.499Z,101987.31
2022-09-22T19:02:25.341Z,101964.28
2022-09-22T19:04:53.118Z,101964.78
2022-09-22T19:07:42.572Z,101959.59
2022-09-22T19:10:13.855Z,101962.13
2022-09-22T19:12:42.442Z,101957.50
2022-09-22T19:15:15.381Z,101951.47
2022-09-22T19:17:44.763Z,101948.09
2022-09-22T19:20:14.809Z,101939.97
2022-09-22T19:22:42.945Z,101949.91
2022-09-22T19:25:12.771Z,101943.00
2022-09-22T19:27:40.787Z,101921.53
2022-09-22T19:30:09.568Z,101918.03
2022-09-22T19:32:37.593Z,101920.22
2022-09-22T19:35:06.248Z,101916.25
2022-09-22T19:37:33.955Z,101927.09
2022-09-22T19:40:02.169Z,101926.53
2022-09-22T19:42:31.487Z,101939.47
2022-09-22T19:44:59.205Z,101923.97
2022-09-22T19:47:27.060Z,101922.44
2022-09-22T19:49:54.990Z,101918.94
2022-09-22T19:52:22.779Z,101913.25
2022-09-22T19:54:50.461Z,101901.69
2022-09-22T19:57:18.323Z,101925.03
2022-09-22T19:59:47.394Z,101924.19
2022-09-22T20:02:16.243Z,101932.22
2022-09-22T20:04:44.061Z,101919.34
2022-09-22T20:07:11.741Z,101925.69
2022-09-22T20:09:39.536Z,101889.50
2022-09-22T20:12:07.936Z,101888.59
2022-09-22T20:14:35.712Z,101888.34
2022-09-22T20:17:07.352Z,101892.09
2022-09-22T20:19:38.288Z,101902.22
2022-09-22T20:22:18.726Z,101899.88
2022-09-22T20:24:54.123Z,101901.16
2022-09-22T20:27:27.037Z,101894.56
2022-09-22T20:29:57.523Z,101867.31
2022-09-22T20:32:28.401Z,101862.66
2022-09-22T20:34:56.850Z,101861.50
2022-09-22T20:37:25.215Z,101879.84
2022-09-22T20:39:53.037Z,101880.75
2022-09-22T20:42:20.870Z,101882.63
2022-09-22T20:44:49.206Z,101878.81
2022-09-22T20:47:18.939Z,101880.19
2022-09-22T20:49:51.567Z,101901.78
2022-09-22T20:52:21.111Z,101879.00
2022-09-22T20:54:49.085Z,101869.50
2022-09-22T20:57:17.397Z,101871.06
2022-09-22T20:59:45.705Z,101863.50
2022-09-22T21:02:14.908Z,101868.53
2022-09-22T21:04:42.967Z,101870.34
2022-09-22T21:07:12.335Z,101850.66
2022-09-22T21:09:57.692Z,101843.41
2022-09-22T21:12:30.749Z,101850.38
2022-09-22T21:14:59.266Z,101857.59
2022-09-22T21:17:27.723Z,101851.34
2022-09-22T21:19:56.172Z,101852.00
2022-09-22T21:22:27.313Z,101845.84
2022-09-22T21:24:55.229Z,101834.53
2022-09-22T21:27:22.924Z,101834.59
2022-09-22T21:29:50.624Z,101814.03
2022-09-22T21:32:19.895Z,101818.63
2022-09-22T21:34:47.577Z,101806.69
2022-09-22T21:37:15.533Z,101802.00
2022-09-22T21:39:44.547Z,101785.72
2022-09-22T21:42:12.245Z,101767.69
2022-09-22T21:44:39.944Z,101785.03
2022-09-22T21:47:07.726Z,101798.09
2022-09-22T21:49:35.415Z,101810.81
2022-09-22T21:52:03.252Z,101799.66
2022-09-22T21:54:31.602Z,101791.53
2022-09-22T21:57:00.625Z,101782.97
2022-09-22T21:59:28.460Z,101770.72
2022-09-22T22:01:56.222Z,101757.75
2022-09-22T22:04:23.969Z,101763.75
2022-09-22T22:06:52.083Z,101752.53
2022-09-22T22:09:21.186Z,101726.75
2022-09-22T22:11:50.861Z,101718.44
2022-09-22T22:14:20.971Z,101697.38
2022-09-22T22:16:50.932Z,101675.44
2022-09-22T22:19:20.283Z,101670.50
2022-09-22T22:21:50.362Z,101662.94
2022-09-22T22:24:33.819Z,101655.06
2022-09-22T22:27:05.964Z,101649.78
2022-09-22T22:29:36.269Z,101619.31
2022-09-22T22:32:05.449Z,101611.63
2022-09-22T22:34:33.341Z,101612.59
2022-09-22T22:37:01.143Z,101593.09
2022-09-22T22:39:29.884Z,101586.72
2022-09-22T22:41:57.634Z,101574.66
2022-09-22T22:44:25.326Z,101582.72
2022-09-22T22:46:54.423Z,101568.66
2022-09-22T22:49:22.165Z,101558.50
2022-09-22T22:51:52.248Z,101560.06
2022-09-22T22:54:19.975Z,101517.88
2022-09-22T22:56:50.967Z,101494.06
2022-09-22T22:59:19.247Z,101493.97
2022-09-22T23:02:30.315Z,101480.09
2022-09-22T23:05:01.029Z,101464.13
2022-09-22T23:07:28.896Z,101429.69
2022-09-22T23:10:06.265Z,101420.69
2022-09-22T23:12:35.070Z,101410.31
2022-09-22T23:15:03.013Z,101413.47
2022-09-22T23:17:31.941Z,101445.28
2022-09-22T23:20:00.977Z,101434.06
2022-09-22T23:22:28.733Z,101400.53
2022-09-22T23:24:56.399Z,101400.28
2022-09-22T23:27:25.010Z,101381.16
2022-09-22T23:29:53.006Z,101380.06
2022-09-22T23:32:20.695Z,101359.13
2022-09-22T23:34:48.372Z,101356.31
2022-09-22T23:37:17.541Z,101362.09
2022-09-22T23:39:45.214Z,101356.50
2022-09-22T23:42:12.941Z,101346.13
2022-09-22T23:44:40.598Z,101314.88
2022-09-22T23:47:08.359Z,101297.72
2022-09-22T23:49:36.048Z,101302.03
2022-09-22T23:52:03.959Z,101285.63
2022-09-22T23:54:33.647Z,101293.63
2022-09-22T23:57:01.417Z,101289.94
2022-09-22T23:59:29.175Z,101284.03
